sensor_id;sensor_type;location;lat;lon;timestamp;P1;durP1;ratioP1;P2;durP2;ratioP2
10450;SDS011;5273;51.290;6.918;2023-06-01T00:00:15;4.93;;;2.63;;
10450;SDS011;5273;51.290;6.918;2023-06-01T00:02:43;3.90;;;2.65;;
10450;SDS011;5273;51.290;6.918;2023-06-01T00:05:10;8.18;;;2.30;;
10450;SDS011;5273;51.290;6.918;2023-06-01T00:07:37;7.82;;;3.05;;
10450;SDS011;5273;51.290;6.918;2023-06-01T00:10:05;2.75;;;2.40;;
10450;SDS011;5273;51.290;6.918;2023-06-01T00:12:32;3.58;;;2.63;;
10450;SDS011;5273;51.290;6.918;2023-06-01T00:14:59;7.03;;;2.78;;
10450;SDS011;5273;51.290;6.918;2023-06-01T00:17:26;4.63;;;2.63;;
10450;SDS011;5273;51.290;6.918;2023-06-01T00:19:55;6.50;;;3.15;;
10450;SDS011;5273;51.290;6.918;2023-06-01T00:22:26;4.85;;;2.65;;
10450;SDS011;5273;51.290;6.918;2023-06-01T00:24:53;5.57;;;3.35;;
10450;SDS011;5273;51.290;6.918;2023-06-01T00:27:22;6.05;;;3.40;;
10450;SDS011;5273;51.290;6.918;2023-06-01T00:29:48;7.35;;;3.38;;
10450;SDS011;5273;51.290;6.918;2023-06-01T00:32:15;7.57;;;3.20;;
10450;SDS011;5273;51.290;6.918;2023-06-01T00:34:42;4.57;;;3.00;;
10450;SDS011;5273;51.290;6.918;2023-06-01T00:37:09;7.93;;;3.00;;
10450;SDS011;5273;51.290;6.918;2023-06-01T00:39:36;6.57;;;2.92;;
10450;SDS011;5273;51.290;6.918;2023-06-01T00:42:02;5.07;;;3.05;;
10450;SDS011;5273;51.290;6.918;2023-06-01T00:44:31;8.90;;;3.70;;
10450;SDS011;5273;51.290;6.918;2023-06-01T00:46:58;4.22;;;3.45;;
10450;SDS011;5273;51.290;6.918;2023-06-01T00:49:25;4.18;;;3.13;;
10450;SDS011;5273;51.290;6.918;2023-06-01T00:51:53;5.70;;;3.90;;
10450;SDS011;5273;51.290;6.918;2023-06-01T00:54:20;5.47;;;3.10;;
10450;SDS011;5273;51.290;6.918;2023-06-01T00:56:47;6.05;;;3.50;;
10450;SDS011;5273;51.290;6.918;2023-06-01T00:59:14;6.25;;;4.15;;
10450;SDS011;5273;51.290;6.918;2023-06-01T01:01:42;6.38;;;3.92;;
10450;SDS011;5273;51.290;6.918;2023-06-01T01:04:09;7.28;;;3.95;;
10450;SDS011;5273;51.290;6.918;2023-06-01T01:06:39;9.90;;;4.18;;
10450;SDS011;5273;51.290;6.918;2023-06-01T01:09:22;6.25;;;4.55;;
10450;SDS011;5273;51.290;6.918;2023-06-01T01:11:56;7.53;;;4.28;;
10450;SDS011;5273;51.290;6.918;2023-06-01T01:14:28;8.07;;;4.35;;
10450;SDS011;5273;51.290;6.918;2023-06-01T01:17:02;7.07;;;4.15;;
10450;SDS011;5273;51.290;6.918;2023-06-01T01:19:42;7.32;;;3.95;;
10450;SDS011;5273;51.290;6.918;2023-06-01T01:22:20;6.90;;;4.05;;
10450;SDS011;5273;51.290;6.918;2023-06-01T01:25:01;10.82;;;4.70;;
10450;SDS011;5273;51.290;6.918;2023-06-01T01:27:44;8.88;;;4.30;;
10450;SDS011;5273;51.290;6.918;2023-06-01T01:30:20;8.52;;;4.95;;
10450;SDS011;5273;51.290;6.918;2023-06-01T01:32:50;9.48;;;4.43;;
10450;SDS011;5273;51.290;6.918;2023-06-01T01:35:19;6.93;;;4.65;;
10450;SDS011;5273;51.290;6.918;2023-06-01T01:37:51;7.38;;;5.00;;
10450;SDS011;5273;51.290;6.918;2023-06-01T01:40:19;12.23;;;5.25;;
10450;SDS011;5273;51.290;6.918;2023-06-01T01:42:46;8.32;;;4.30;;
10450;SDS011;5273;51.290;6.918;2023-06-01T01:45:15;10.63;;;5.18;;
10450;SDS011;5273;51.290;6.918;2023-06-01T01:47:46;8.90;;;4.65;;
10450;SDS011;5273;51.290;6.918;2023-06-01T01:50:20;7.00;;;4.80;;
10450;SDS011;5273;51.290;6.918;2023-06-01T01:52:49;11.50;;;5.15;;
10450;SDS011;5273;51.290;6.918;2023-06-01T01:55:19;10.63;;;5.05;;
10450;SDS011;5273;51.290;6.918;2023-06-01T01:57:48;11.45;;;5.68;;
10450;SDS011;5273;51.290;6.918;2023-06-01T02:00:17;8.20;;;5.00;;
10450;SDS011;5273;51.290;6.918;2023-06-01T02:02:46;11.80;;;5.88;;
10450;SDS011;5273;51.290;6.918;2023-06-01T02:05:13;11.43;;;5.30;;
10450;SDS011;5273;51.290;6.918;2023-06-01T02:07:40;11.02;;;6.18;;
10450;SDS011;5273;51.290;6.918;2023-06-01T02:10:07;11.30;;;6.18;;
10450;SDS011;5273;51.290;6.918;2023-06-01T02:12:34;12.73;;;5.70;;
10450;SDS011;5273;51.290;6.918;2023-06-01T02:15:01;13.57;;;6.45;;
10450;SDS011;5273;51.290;6.918;2023-06-01T02:17:28;9.02;;;6.10;;
10450;SDS011;5273;51.290;6.918;2023-06-01T02:19:56;11.38;;;6.05;;
10450;SDS011;5273;51.290;6.918;2023-06-01T02:22:23;9.98;;;6.38;;
10450;SDS011;5273;51.290;6.918;2023-06-01T02:24:50;11.50;;;6.95;;
10450;SDS011;5273;51.290;6.918;2023-06-01T02:27:17;11.13;;;6.57;;
10450;SDS011;5273;51.290;6.918;2023-06-01T02:29:43;14.23;;;7.18;;
10450;SDS011;5273;51.290;6.918;2023-06-01T02:32:10;10.38;;;7.03;;
10450;SDS011;5273;51.290;6.918;2023-06-01T02:34:37;11.27;;;7.00;;
10450;SDS011;5273;51.290;6.918;2023-06-01T02:37:05;9.07;;;7.03;;
10450;SDS011;5273;51.290;6.918;2023-06-01T02:39:32;13.40;;;7.57;;
10450;SDS011;5273;51.290;6.918;2023-06-01T02:41:59;14.57;;;6.93;;
10450;SDS011;5273;51.290;6.918;2023-06-01T02:44:25;11.55;;;7.55;;
10450;SDS011;5273;51.290;6.918;2023-06-01T02:46:52;13.68;;;6.75;;
10450;SDS011;5273;51.290;6.918;2023-06-01T02:49:19;10.40;;;7.60;;
10450;SDS011;5273;51.290;6.918;2023-06-01T02:51:46;11.43;;;8.02;;
10450;SDS011;5273;51.290;6.918;2023-06-01T02:54:14;12.25;;;7.57;;
10450;SDS011;5273;51.290;6.918;2023-06-01T02:56:41;14.57;;;8.77;;
10450;SDS011;5273;51.290;6.918;2023-06-01T02:59:07;18.33;;;8.25;;
10450;SDS011;5273;51.290;6.918;2023-06-01T03:01:34;15.02;;;8.85;;
10450;SDS011;5273;51.290;6.918;2023-06-01T03:04:01;14.93;;;9.15;;
10450;SDS011;5273;51.290;6.918;2023-06-01T03:06:29;15.13;;;8.80;;
10450;SDS011;5273;51.290;6.918;2023-06-01T03:08:57;18.05;;;9.43;;
10450;SDS011;5273;51.290;6.918;2023-06-01T03:11:25;15.20;;;8.23;;
10450;SDS011;5273;51.290;6.918;2023-06-01T03:13:52;17.38;;;9.63;;
10450;SDS011;5273;51.290;6.918;2023-06-01T03:16:18;14.98;;;10.25;;
10450;SDS011;5273;51.290;6.918;2023-06-01T03:18:45;15.65;;;9.68;;
10450;SDS011;5273;51.290;6.918;2023-06-01T03:21:12;19.00;;;10.20;;
10450;SDS011;5273;51.290;6.918;2023-06-01T03:23:38;16.35;;;10.27;;
10450;SDS011;5273;51.290;6.918;2023-06-01T03:26:09;18.38;;;10.15;;
10450;SDS011;5273;51.290;6.918;2023-06-01T03:28:38;18.67;;;10.38;;
10450;SDS011;5273;51.290;6.918;2023-06-01T03:31:05;20.20;;;10.02;;
10450;SDS011;5273;51.290;6.918;2023-06-01T03:33:32;16.60;;;11.10;;
10450;SDS011;5273;51.290;6.918;2023-06-01T03:35:59;17.45;;;10.57;;
10450;SDS011;5273;51.290;6.918;2023-06-01T03:38:26;21.88;;;11.93;;
10450;SDS011;5273;51.290;6.918;2023-06-01T03:40:53;21.73;;;12.25;;
10450;SDS011;5273;51.290;6.918;2023-06-01T03:43:20;20.30;;;12.97;;
10450;SDS011;5273;51.290;6.918;2023-06-01T03:45:48;22.38;;;13.30;;
10450;SDS011;5273;51.290;6.918;2023-06-01T03:48:15;23.27;;;13.55;;
10450;SDS011;5273;51.290;6.918;2023-06-01T03:50:41;29.20;;;15.02;;
10450;SDS011;5273;51.290;6.918;2023-06-01T03:53:08;24.73;;;15.02;;
10450;SDS011;5273;51.290;6.918;2023-06-01T03:55:35;23.92;;;14.68;;
10450;SDS011;5273;51.290;6.918;2023-06-01T03:58:02;28.88;;;15.02;;
10450;SDS011;5273;51.290;6.918;2023-06-01T04:00:29;22.90;;;13.93;;
10450;SDS011;5273;51.290;6.918;2023-06-01T04:02:58;24.25;;;13.98;;
10450;SDS011;5273;51.290;6.918;2023-06-01T04:05:27;20.67;;;13.13;;
10450;SDS011;5273;51.290;6.918;2023-06-01T04:07:54;21.05;;;12.80;;
10450;SDS011;5273;51.290;6.918;2023-06-01T04:10:22;22.75;;;12.68;;
10450;SDS011;5273;51.290;6.918;2023-06-01T04:12:49;20.38;;;12.55;;
10450;SDS011;5273;51.290;6.918;2023-06-01T04:15:17;19.02;;;12.88;;
10450;SDS011;5273;51.290;6.918;2023-06-01T04:17:45;16.98;;;11.73;;
10450;SDS011;5273;51.290;6.918;2023-06-01T04:20:14;19.52;;;12.63;;
10450;SDS011;5273;51.290;6.918;2023-06-01T04:22:42;18.60;;;12.30;;
10450;SDS011;5273;51.290;6.918;2023-06-01T04:25:09;22.42;;;13.30;;
10450;SDS011;5273;51.290;6.918;2023-06-01T04:27:42;23.88;;;13.93;;
10450;SDS011;5273;51.290;6.918;2023-06-01T04:30:10;21.60;;;13.18;;
10450;SDS011;5273;51.290;6.918;2023-06-01T04:32:38;25.13;;;13.20;;
10450;SDS011;5273;51.290;6.918;2023-06-01T04:35:09;22.20;;;14.00;;
10450;SDS011;5273;51.290;6.918;2023-06-01T04:37:37;18.47;;;12.50;;
10450;SDS011;5273;51.290;6.918;2023-06-01T04:40:06;20.70;;;13.73;;
10450;SDS011;5273;51.290;6.918;2023-06-01T04:42:34;21.00;;;13.70;;
10450;SDS011;5273;51.290;6.918;2023-06-01T04:45:01;20.52;;;14.25;;
10450;SDS011;5273;51.290;6.918;2023-06-01T04:47:29;21.23;;;13.47;;
10450;SDS011;5273;51.290;6.918;2023-06-01T04:49:57;23.47;;;14.90;;
10450;SDS011;5273;51.290;6.918;2023-06-01T04:52:24;22.20;;;14.18;;
10450;SDS011;5273;51.290;6.918;2023-06-01T04:54:52;22.48;;;15.10;;
10450;SDS011;5273;51.290;6.918;2023-06-01T04:57:19;26.97;;;15.00;;
10450;SDS011;5273;51.290;6.918;2023-06-01T04:59:48;21.88;;;13.38;;
10450;SDS011;5273;51.290;6.918;2023-06-01T05:02:16;18.77;;;13.20;;
10450;SDS011;5273;51.290;6.918;2023-06-01T05:04:43;23.92;;;14.90;;
10450;SDS011;5273;51.290;6.918;2023-06-01T05:07:10;26.02;;;14.13;;
10450;SDS011;5273;51.290;6.918;2023-06-01T05:09:37;21.50;;;13.48;;
10450;SDS011;5273;51.290;6.918;2023-06-01T05:12:06;21.27;;;13.75;;
10450;SDS011;5273;51.290;6.918;2023-06-01T05:14:34;19.38;;;13.15;;
10450;SDS011;5273;51.290;6.918;2023-06-01T05:17:00;20.27;;;12.98;;
10450;SDS011;5273;51.290;6.918;2023-06-01T05:19:28;18.92;;;13.43;;
10450;SDS011;5273;51.290;6.918;2023-06-01T05:21:55;16.67;;;12.52;;
10450;SDS011;5273;51.290;6.918;2023-06-01T05:24:22;23.88;;;12.63;;
10450;SDS011;5273;51.290;6.918;2023-06-01T05:26:49;21.08;;;13.88;;
10450;SDS011;5273;51.290;6.918;2023-06-01T05:29:17;19.40;;;13.40;;
10450;SDS011;5273;51.290;6.918;2023-06-01T05:31:45;19.67;;;12.70;;
10450;SDS011;5273;51.290;6.918;2023-06-01T05:34:12;19.48;;;13.07;;
10450;SDS011;5273;51.290;6.918;2023-06-01T05:36:39;20.85;;;13.68;;
10450;SDS011;5273;51.290;6.918;2023-06-01T05:39:06;21.30;;;14.10;;
10450;SDS011;5273;51.290;6.918;2023-06-01T05:41:33;17.67;;;13.63;;
10450;SDS011;5273;51.290;6.918;2023-06-01T05:44:01;26.15;;;14.38;;
10450;SDS011;5273;51.290;6.918;2023-06-01T05:46:29;21.35;;;13.52;;
10450;SDS011;5273;51.290;6.918;2023-06-01T05:48:56;23.65;;;14.88;;
10450;SDS011;5273;51.290;6.918;2023-06-01T05:51:23;19.27;;;13.50;;
10450;SDS011;5273;51.290;6.918;2023-06-01T05:53:50;20.10;;;13.60;;
10450;SDS011;5273;51.290;6.918;2023-06-01T05:56:17;19.70;;;13.75;;
10450;SDS011;5273;51.290;6.918;2023-06-01T05:58:44;21.13;;;14.40;;
10450;SDS011;5273;51.290;6.918;2023-06-01T06:01:15;21.27;;;13.80;;
10450;SDS011;5273;51.290;6.918;2023-06-01T06:03:44;22.25;;;14.80;;
10450;SDS011;5273;51.290;6.918;2023-06-01T06:06:11;20.60;;;13.57;;
10450;SDS011;5273;51.290;6.918;2023-06-01T06:08:38;22.88;;;14.98;;
10450;SDS011;5273;51.290;6.918;2023-06-01T06:11:05;20.48;;;13.65;;
10450;SDS011;5273;51.290;6.918;2023-06-01T06:13:31;22.52;;;14.85;;
10450;SDS011;5273;51.290;6.918;2023-06-01T06:15:58;20.30;;;14.20;;
10450;SDS011;5273;51.290;6.918;2023-06-01T06:18:25;22.23;;;13.82;;
10450;SDS011;5273;51.290;6.918;2023-06-01T06:20:53;19.73;;;14.07;;
10450;SDS011;5273;51.290;6.918;2023-06-01T06:23:20;22.23;;;13.40;;
10450;SDS011;5273;51.290;6.918;2023-06-01T06:25:47;21.58;;;13.73;;
10450;SDS011;5273;51.290;6.918;2023-06-01T06:28:14;18.17;;;12.40;;
10450;SDS011;5273;51.290;6.918;2023-06-01T06:30:41;17.58;;;13.07;;
10450;SDS011;5273;51.290;6.918;2023-06-01T06:33:08;23.10;;;12.73;;
10450;SDS011;5273;51.290;6.918;2023-06-01T06:35:35;22.20;;;13.95;;
10450;SDS011;5273;51.290;6.918;2023-06-01T06:38:05;18.90;;;13.63;;
10450;SDS011;5273;51.290;6.918;2023-06-01T06:40:32;18.65;;;12.82;;
10450;SDS011;5273;51.290;6.918;2023-06-01T06:42:59;18.02;;;13.52;;
10450;SDS011;5273;51.290;6.918;2023-06-01T06:45:26;17.10;;;12.75;;
10450;SDS011;5273;51.290;6.918;2023-06-01T06:47:53;18.00;;;12.13;;
10450;SDS011;5273;51.290;6.918;2023-06-01T06:50:20;18.17;;;13.18;;
10450;SDS011;5273;51.290;6.918;2023-06-01T06:52:47;16.08;;;12.00;;
10450;SDS011;5273;51.290;6.918;2023-06-01T06:55:16;18.23;;;12.10;;
10450;SDS011;5273;51.290;6.918;2023-06-01T06:57:43;20.88;;;12.90;;
10450;SDS011;5273;51.290;6.918;2023-06-01T07:00:10;18.73;;;12.30;;
10450;SDS011;5273;51.290;6.918;2023-06-01T07:02:39;17.42;;;12.60;;
10450;SDS011;5273;51.290;6.918;2023-06-01T07:05:06;15.73;;;11.30;;
10450;SDS011;5273;51.290;6.918;2023-06-01T07:07:33;16.02;;;11.52;;
10450;SDS011;5273;51.290;6.918;2023-06-01T07:10:00;14.77;;;11.60;;
10450;SDS011;5273;51.290;6.918;2023-06-01T07:12:28;15.32;;;11.00;;
10450;SDS011;5273;51.290;6.918;2023-06-01T07:14:55;14.73;;;11.48;;
10450;SDS011;5273;51.290;6.918;2023-06-01T07:17:22;15.13;;;10.27;;
10450;SDS011;5273;51.290;6.918;2023-06-01T07:19:48;16.65;;;10.55;;
10450;SDS011;5273;51.290;6.918;2023-06-01T07:22:15;16.13;;;10.60;;
10450;SDS011;5273;51.290;6.918;2023-06-01T07:24:42;14.25;;;10.00;;
10450;SDS011;5273;51.290;6.918;2023-06-01T07:27:09;15.00;;;10.50;;
10450;SDS011;5273;51.290;6.918;2023-06-01T07:29:39;13.45;;;10.02;;
10450;SDS011;5273;51.290;6.918;2023-06-01T07:32:06;13.07;;;9.85;;
10450;SDS011;5273;51.290;6.918;2023-06-01T07:34:33;12.35;;;9.25;;
10450;SDS011;5273;51.290;6.918;2023-06-01T07:37:00;14.57;;;9.88;;
10450;SDS011;5273;51.290;6.918;2023-06-01T07:39:28;10.85;;;8.50;;
10450;SDS011;5273;51.290;6.918;2023-06-01T07:41:55;13.95;;;8.65;;
10450;SDS011;5273;51.290;6.918;2023-06-01T07:44:22;12.10;;;9.38;;
10450;SDS011;5273;51.290;6.918;2023-06-01T07:46:50;12.80;;;9.52;;
10450;SDS011;5273;51.290;6.918;2023-06-01T07:49:17;13.07;;;9.32;;
10450;SDS011;5273;51.290;6.918;2023-06-01T07:51:44;11.55;;;8.35;;
10450;SDS011;5273;51.290;6.918;2023-06-01T07:54:11;11.02;;;8.63;;
10450;SDS011;5273;51.290;6.918;2023-06-01T07:56:38;9.30;;;8.25;;
10450;SDS011;5273;51.290;6.918;2023-06-01T07:59:04;11.45;;;8.30;;
10450;SDS011;5273;51.290;6.918;2023-06-01T08:01:31;9.15;;;7.88;;
10450;SDS011;5273;51.290;6.918;2023-06-01T08:04:00;8.25;;;7.45;;
10450;SDS011;5273;51.290;6.918;2023-06-01T08:06:28;11.57;;;8.43;;
10450;SDS011;5273;51.290;6.918;2023-06-01T08:09:01;10.95;;;8.00;;
10450;SDS011;5273;51.290;6.918;2023-06-01T08:11:28;8.32;;;6.97;;
10450;SDS011;5273;51.290;6.918;2023-06-01T08:13:54;9.48;;;7.35;;
10450;SDS011;5273;51.290;6.918;2023-06-01T08:16:24;10.50;;;7.82;;
10450;SDS011;5273;51.290;6.918;2023-06-01T08:18:52;9.20;;;7.70;;
10450;SDS011;5273;51.290;6.918;2023-06-01T08:21:22;13.00;;;8.20;;
10450;SDS011;5273;51.290;6.918;2023-06-01T08:23:50;10.55;;;8.18;;
10450;SDS011;5273;51.290;6.918;2023-06-01T08:26:17;9.02;;;7.70;;
10450;SDS011;5273;51.290;6.918;2023-06-01T08:28:45;9.18;;;7.32;;
10450;SDS011;5273;51.290;6.918;2023-06-01T08:31:16;9.73;;;7.50;;
10450;SDS011;5273;51.290;6.918;2023-06-01T08:33:43;9.60;;;7.38;;
10450;SDS011;5273;51.290;6.918;2023-06-01T08:36:10;10.50;;;7.85;;
10450;SDS011;5273;51.290;6.918;2023-06-01T08:38:38;9.30;;;7.00;;
10450;SDS011;5273;51.290;6.918;2023-06-01T08:41:08;7.50;;;6.78;;
10450;SDS011;5273;51.290;6.918;2023-06-01T08:43:40;8.13;;;7.18;;
10450;SDS011;5273;51.290;6.918;2023-06-01T08:46:09;8.60;;;6.35;;
10450;SDS011;5273;51.290;6.918;2023-06-01T08:48:37;8.05;;;6.93;;
10450;SDS011;5273;51.290;6.918;2023-06-01T08:51:05;7.82;;;6.57;;
10450;SDS011;5273;51.290;6.918;2023-06-01T08:53:33;11.93;;;7.28;;
10450;SDS011;5273;51.290;6.918;2023-06-01T08:56:02;11.50;;;7.75;;
10450;SDS011;5273;51.290;6.918;2023-06-01T08:58:29;7.43;;;6.43;;
10450;SDS011;5273;51.290;6.918;2023-06-01T09:00:56;9.40;;;6.85;;
10450;SDS011;5273;51.290;6.918;2023-06-01T09:03:25;7.30;;;6.60;;
10450;SDS011;5273;51.290;6.918;2023-06-01T09:05:52;9.95;;;7.40;;
10450;SDS011;5273;51.290;6.918;2023-06-01T09:08:18;8.85;;;7.45;;
10450;SDS011;5273;51.290;6.918;2023-06-01T09:10:47;10.73;;;7.32;;
10450;SDS011;5273;51.290;6.918;2023-06-01T09:13:15;8.80;;;7.30;;
10450;SDS011;5273;51.290;6.918;2023-06-01T09:15:56;9.15;;;7.25;;
10450;SDS011;5273;51.290;6.918;2023-06-01T09:18:23;11.18;;;7.82;;
10450;SDS011;5273;51.290;6.918;2023-06-01T09:20:50;9.25;;;7.82;;
10450;SDS011;5273;51.290;6.918;2023-06-01T09:23:24;7.70;;;6.90;;
10450;SDS011;5273;51.290;6.918;2023-06-01T09:26:03;12.52;;;7.85;;
10450;SDS011;5273;51.290;6.918;2023-06-01T09:28:37;10.85;;;7.68;;
10450;SDS011;5273;51.290;6.918;2023-06-01T09:34:01;9.30;;;7.65;;
10450;SDS011;5273;51.290;6.918;2023-06-01T09:36:28;13.90;;;9.25;;
10450;SDS011;5273;51.290;6.918;2023-06-01T09:38:59;9.82;;;8.57;;
10450;SDS011;5273;51.290;6.918;2023-06-01T09:41:27;10.35;;;8.38;;
10450;SDS011;5273;51.290;6.918;2023-06-01T09:44:10;9.90;;;8.00;;
10450;SDS011;5273;51.290;6.918;2023-06-01T09:46:45;10.00;;;8.85;;
10450;SDS011;5273;51.290;6.918;2023-06-01T09:49:17;8.57;;;7.68;;
10450;SDS011;5273;51.290;6.918;2023-06-01T09:51:45;8.70;;;7.57;;
10450;SDS011;5273;51.290;6.918;2023-06-01T09:54:21;10.77;;;8.38;;
10450;SDS011;5273;51.290;6.918;2023-06-01T09:56:48;9.27;;;7.65;;
10450;SDS011;5273;51.290;6.918;2023-06-01T09:59:16;10.95;;;9.05;;
10450;SDS011;5273;51.290;6.918;2023-06-01T10:01:43;9.98;;;8.98;;
10450;SDS011;5273;51.290;6.918;2023-06-01T10:04:16;10.30;;;9.25;;
10450;SDS011;5273;51.290;6.918;2023-06-01T10:06:49;12.50;;;9.75;;
10450;SDS011;5273;51.290;6.918;2023-06-01T10:09:17;10.40;;;9.43;;
10450;SDS011;5273;51.290;6.918;2023-06-01T10:11:45;13.00;;;10.70;;
10450;SDS011;5273;51.290;6.918;2023-06-01T10:14:13;10.88;;;9.32;;
10450;SDS011;5273;51.290;6.918;2023-06-01T10:16:42;12.13;;;10.90;;
10450;SDS011;5273;51.290;6.918;2023-06-01T10:19:09;10.77;;;9.68;;
10450;SDS011;5273;51.290;6.918;2023-06-01T10:21:36;13.48;;;12.07;;
10450;SDS011;5273;51.290;6.918;2023-06-01T10:24:05;13.52;;;12.13;;
10450;SDS011;5273;51.290;6.918;2023-06-01T10:26:35;14.02;;;12.60;;
10450;SDS011;5273;51.290;6.918;2023-06-01T10:29:07;14.43;;;13.13;;
10450;SDS011;5273;51.290;6.918;2023-06-01T10:31:35;16.25;;;13.48;;
10450;SDS011;5273;51.290;6.918;2023-06-01T10:34:04;15.35;;;13.55;;
10450;SDS011;5273;51.290;6.918;2023-06-01T10:39:36;15.68;;;13.52;;
10450;SDS011;5273;51.290;6.918;2023-06-01T10:45:06;16.33;;;14.57;;
10450;SDS011;5273;51.290;6.918;2023-06-01T10:47:46;18.27;;;14.90;;
10450;SDS011;5273;51.290;6.918;2023-06-01T10:50:15;18.30;;;15.27;;
10450;SDS011;5273;51.290;6.918;2023-06-01T10:52:45;16.08;;;13.20;;
10450;SDS011;5273;51.290;6.918;2023-06-01T10:55:19;16.50;;;13.25;;
10450;SDS011;5273;51.290;6.918;2023-06-01T10:57:47;17.75;;;14.13;;
10450;SDS011;5273;51.290;6.918;2023-06-01T11:00:16;17.30;;;14.02;;
10450;SDS011;5273;51.290;6.918;2023-06-01T11:02:49;15.30;;;13.85;;
10450;SDS011;5273;51.290;6.918;2023-06-01T11:05:34;17.27;;;15.43;;
10450;SDS011;5273;51.290;6.918;2023-06-01T11:11:15;16.58;;;14.05;;
10450;SDS011;5273;51.290;6.918;2023-06-01T11:13:42;16.38;;;14.07;;
10450;SDS011;5273;51.290;6.918;2023-06-01T11:18:57;16.38;;;13.90;;
10450;SDS011;5273;51.290;6.918;2023-06-01T11:21:26;19.33;;;14.93;;
10450;SDS011;5273;51.290;6.918;2023-06-01T11:23:55;18.42;;;14.30;;
10450;SDS011;5273;51.290;6.918;2023-06-01T11:26:23;19.75;;;12.85;;
10450;SDS011;5273;51.290;6.918;2023-06-01T11:29:02;16.52;;;12.57;;
10450;SDS011;5273;51.290;6.918;2023-06-01T11:31:34;17.42;;;13.50;;
10450;SDS011;5273;51.290;6.918;2023-06-01T11:34:02;16.35;;;11.95;;
10450;SDS011;5273;51.290;6.918;2023-06-01T11:36:30;16.35;;;11.20;;
10450;SDS011;5273;51.290;6.918;2023-06-01T11:39:02;16.63;;;9.10;;
10450;SDS011;5273;51.290;6.918;2023-06-01T11:41:31;13.25;;;8.90;;
10450;SDS011;5273;51.290;6.918;2023-06-01T11:43:58;11.98;;;8.30;;
10450;SDS011;5273;51.290;6.918;2023-06-01T11:46:25;13.73;;;8.20;;
10450;SDS011;5273;51.290;6.918;2023-06-01T11:48:59;12.57;;;8.32;;
10450;SDS011;5273;51.290;6.918;2023-06-01T11:51:27;9.35;;;7.55;;
10450;SDS011;5273;51.290;6.918;2023-06-01T11:53:57;11.52;;;7.65;;
10450;SDS011;5273;51.290;6.918;2023-06-01T11:56:29;12.93;;;7.40;;
10450;SDS011;5273;51.290;6.918;2023-06-01T11:58:57;12.00;;;7.70;;
10450;SDS011;5273;51.290;6.918;2023-06-01T12:01:25;11.57;;;7.45;;
10450;SDS011;5273;51.290;6.918;2023-06-01T12:03:53;11.70;;;7.75;;
10450;SDS011;5273;51.290;6.918;2023-06-01T12:06:22;11.30;;;7.30;;
10450;SDS011;5273;51.290;6.918;2023-06-01T12:08:50;11.88;;;7.53;;
10450;SDS011;5273;51.290;6.918;2023-06-01T12:11:21;12.05;;;8.10;;
10450;SDS011;5273;51.290;6.918;2023-06-01T12:13:51;12.88;;;7.25;;
10450;SDS011;5273;51.290;6.918;2023-06-01T12:16:20;12.77;;;7.43;;
10450;SDS011;5273;51.290;6.918;2023-06-01T12:18:46;10.90;;;7.55;;
10450;SDS011;5273;51.290;6.918;2023-06-01T12:21:13;12.18;;;7.25;;
10450;SDS011;5273;51.290;6.918;2023-06-01T12:23:42;13.02;;;7.22;;
10450;SDS011;5273;51.290;6.918;2023-06-01T12:26:09;12.07;;;7.13;;
10450;SDS011;5273;51.290;6.918;2023-06-01T12:28:50;11.10;;;7.03;;
10450;SDS011;5273;51.290;6.918;2023-06-01T12:31:19;13.43;;;7.63;;
10450;SDS011;5273;51.290;6.918;2023-06-01T12:33:47;11.43;;;7.20;;
10450;SDS011;5273;51.290;6.918;2023-06-01T12:36:30;10.60;;;7.00;;
10450;SDS011;5273;51.290;6.918;2023-06-01T12:38:58;9.23;;;6.80;;
10450;SDS011;5273;51.290;6.918;2023-06-01T12:41:26;12.82;;;7.18;;
10450;SDS011;5273;51.290;6.918;2023-06-01T12:43:55;12.13;;;7.20;;
10450;SDS011;5273;51.290;6.918;2023-06-01T12:46:23;12.25;;;6.95;;
10450;SDS011;5273;51.290;6.918;2023-06-01T12:48:51;10.52;;;7.13;;
10450;SDS011;5273;51.290;6.918;2023-06-01T12:51:19;13.90;;;7.10;;
10450;SDS011;5273;51.290;6.918;2023-06-01T12:53:47;9.60;;;6.65;;
10450;SDS011;5273;51.290;6.918;2023-06-01T12:56:14;8.90;;;6.45;;
10450;SDS011;5273;51.290;6.918;2023-06-01T12:58:41;11.63;;;6.60;;
10450;SDS011;5273;51.290;6.918;2023-06-01T13:01:10;10.10;;;6.45;;
10450;SDS011;5273;51.290;6.918;2023-06-01T13:03:36;10.40;;;6.60;;
10450;SDS011;5273;51.290;6.918;2023-06-01T13:06:03;10.00;;;6.68;;
10450;SDS011;5273;51.290;6.918;2023-06-01T13:08:30;12.65;;;6.32;;
10450;SDS011;5273;51.290;6.918;2023-06-01T13:10:57;10.77;;;6.78;;
10450;SDS011;5273;51.290;6.918;2023-06-01T13:13:24;10.35;;;6.25;;
10450;SDS011;5273;51.290;6.918;2023-06-01T13:15:50;9.05;;;6.00;;
10450;SDS011;5273;51.290;6.918;2023-06-01T13:18:18;11.82;;;6.47;;
10450;SDS011;5273;51.290;6.918;2023-06-01T13:20:46;8.57;;;5.72;;
10450;SDS011;5273;51.290;6.918;2023-06-01T13:23:13;8.85;;;6.13;;
10450;SDS011;5273;51.290;6.918;2023-06-01T13:25:40;8.10;;;6.10;;
10450;SDS011;5273;51.290;6.918;2023-06-01T13:28:07;10.40;;;6.38;;
10450;SDS011;5273;51.290;6.918;2023-06-01T13:30:33;9.10;;;6.05;;
10450;SDS011;5273;51.290;6.918;2023-06-01T13:33:00;14.32;;;6.10;;
10450;SDS011;5273;51.290;6.918;2023-06-01T13:35:29;8.15;;;6.25;;
10450;SDS011;5273;51.290;6.918;2023-06-01T13:37:56;8.40;;;6.35;;
10450;SDS011;5273;51.290;6.918;2023-06-01T13:40:23;10.35;;;6.88;;
10450;SDS011;5273;51.290;6.918;2023-06-01T13:42:50;9.20;;;6.40;;
10450;SDS011;5273;51.290;6.918;2023-06-01T13:45:17;8.02;;;6.75;;
10450;SDS011;5273;51.290;6.918;2023-06-01T13:47:44;8.82;;;6.47;;
10450;SDS011;5273;51.290;6.918;2023-06-01T13:50:11;9.15;;;6.72;;
10450;SDS011;5273;51.290;6.918;2023-06-01T13:52:40;10.38;;;6.38;;
10450;SDS011;5273;51.290;6.918;2023-06-01T13:55:07;9.48;;;5.88;;
10450;SDS011;5273;51.290;6.918;2023-06-01T13:57:34;13.32;;;6.38;;
10450;SDS011;5273;51.290;6.918;2023-06-01T14:00:02;8.68;;;6.07;;
10450;SDS011;5273;51.290;6.918;2023-06-01T14:02:30;14.50;;;6.03;;
10450;SDS011;5273;51.290;6.918;2023-06-01T14:04:56;8.40;;;6.15;;
10450;SDS011;5273;51.290;6.918;2023-06-01T14:07:23;9.00;;;6.10;;
10450;SDS011;5273;51.290;6.918;2023-06-01T14:09:52;12.27;;;6.25;;
10450;SDS011;5273;51.290;6.918;2023-06-01T14:12:18;9.25;;;5.55;;
10450;SDS011;5273;51.290;6.918;2023-06-01T14:14:45;8.25;;;6.15;;
10450;SDS011;5273;51.290;6.918;2023-06-01T14:17:12;8.35;;;6.43;;
10450;SDS011;5273;51.290;6.918;2023-06-01T14:19:39;9.77;;;6.35;;
10450;SDS011;5273;51.290;6.918;2023-06-01T14:22:06;9.95;;;6.45;;
10450;SDS011;5273;51.290;6.918;2023-06-01T14:24:32;9.00;;;6.07;;
10450;SDS011;5273;51.290;6.918;2023-06-01T14:27:00;7.00;;;5.65;;
10450;SDS011;5273;51.290;6.918;2023-06-01T14:29:27;10.30;;;6.38;;
10450;SDS011;5273;51.290;6.918;2023-06-01T14:31:54;10.50;;;5.93;;
10450;SDS011;5273;51.290;6.918;2023-06-01T14:34:21;6.85;;;5.43;;
10450;SDS011;5273;51.290;6.918;2023-06-01T14:36:47;9.18;;;6.35;;
10450;SDS011;5273;51.290;6.918;2023-06-01T14:39:14;8.07;;;6.22;;
10450;SDS011;5273;51.290;6.918;2023-06-01T14:41:41;6.55;;;5.40;;
10450;SDS011;5273;51.290;6.918;2023-06-01T14:44:09;8.00;;;6.22;;
10450;SDS011;5273;51.290;6.918;2023-06-01T14:46:36;9.40;;;6.28;;
10450;SDS011;5273;51.290;6.918;2023-06-01T14:49:03;11.13;;;5.32;;
10450;SDS011;5273;51.290;6.918;2023-06-01T14:51:30;8.90;;;5.95;;
10450;SDS011;5273;51.290;6.918;2023-06-01T14:53:58;7.95;;;5.85;;
10450;SDS011;5273;51.290;6.918;2023-06-01T14:56:25;7.78;;;5.72;;
10450;SDS011;5273;51.290;6.918;2023-06-01T14:58:52;9.35;;;5.57;;
10450;SDS011;5273;51.290;6.918;2023-06-01T15:01:20;7.68;;;5.63;;
10450;SDS011;5273;51.290;6.918;2023-06-01T15:03:48;12.02;;;6.22;;
10450;SDS011;5273;51.290;6.918;2023-06-01T15:06:15;10.55;;;6.15;;
10450;SDS011;5273;51.290;6.918;2023-06-01T15:08:42;10.48;;;6.50;;